sensor_id;sensor_type;location;lat;lon;timestamp;P1;durP1;ratioP1;P2;durP2;ratioP2
54502;SDS011;40411;50.090;21.954;2022-12-07T00:00:54;18.33;;;8.88;;
54502;SDS011;40411;50.090;21.954;2022-12-07T00:03:20;19.08;;;9.80;;
54502;SDS011;40411;50.090;21.954;2022-12-07T00:05:46;18.10;;;8.75;;
54502;SDS011;40411;50.090;21.954;2022-12-07T00:08:12;23.27;;;8.98;;
54502;SDS011;40411;50.090;21.954;2022-12-07T00:10:38;15.90;;;7.15;;
54502;SDS011;40411;50.090;21.954;2022-12-07T00:13:03;18.50;;;8.23;;
54502;SDS011;40411;50.090;21.954;2022-12-07T00:15:29;14.02;;;6.68;;
54502;SDS011;40411;50.090;21.954;2022-12-07T00:17:55;14.15;;;7.05;;
54502;SDS011;40411;50.090;21.954;2022-12-07T00:20:21;13.48;;;7.95;;
54502;SDS011;40411;50.090;21.954;2022-12-07T00:22:46;12.60;;;6.47;;
54502;SDS011;40411;50.090;21.954;2022-12-07T00:25:12;13.43;;;6.63;;
54502;SDS011;40411;50.090;21.954;2022-12-07T00:27:38;16.95;;;6.40;;
54502;SDS011;40411;50.090;21.954;2022-12-07T00:30:04;14.50;;;5.80;;
54502;SDS011;40411;50.090;21.954;2022-12-07T00:32:30;12.10;;;4.70;;
54502;SDS011;40411;50.090;21.954;2022-12-07T00:34:56;13.35;;;5.50;;
54502;SDS011;40411;50.090;21.954;2022-12-07T00:37:22;9.15;;;4.20;;
54502;SDS011;40411;50.090;21.954;2022-12-07T00:39:48;15.02;;;6.75;;
54502;SDS011;40411;50.090;21.954;2022-12-07T00:42:14;15.82;;;7.50;;
54502;SDS011;40411;50.090;21.954;2022-12-07T00:44:40;12.98;;;6.65;;
54502;SDS011;40411;50.090;21.954;2022-12-07T00:47:05;19.88;;;8.82;;
54502;SDS011;40411;50.090;21.954;2022-12-07T00:49:31;13.68;;;6.45;;
54502;SDS011;40411;50.090;21.954;2022-12-07T00:51:57;14.30;;;6.82;;
54502;SDS011;40411;50.090;21.954;2022-12-07T00:54:23;14.13;;;6.43;;
54502;SDS011;40411;50.090;21.954;2022-12-07T00:56:48;12.57;;;6.43;;
54502;SDS011;40411;50.090;21.954;2022-12-07T00:59:14;19.42;;;8.38;;
54502;SDS011;40411;50.090;21.954;2022-12-07T01:01:40;18.02;;;7.47;;
54502;SDS011;40411;50.090;21.954;2022-12-07T01:04:06;20.92;;;6.43;;
54502;SDS011;40411;50.090;21.954;2022-12-07T01:06:33;24.08;;;8.95;;
54502;SDS011;40411;50.090;21.954;2022-12-07T01:08:59;20.60;;;8.68;;
54502;SDS011;40411;50.090;21.954;2022-12-07T01:11:26;19.75;;;8.65;;
54502;SDS011;40411;50.090;21.954;2022-12-07T01:13:55;21.77;;;8.30;;
54502;SDS011;40411;50.090;21.954;2022-12-07T01:16:23;16.23;;;6.88;;
54502;SDS011;40411;50.090;21.954;2022-12-07T01:18:52;20.02;;;8.48;;
54502;SDS011;40411;50.090;21.954;2022-12-07T01:21:20;19.00;;;8.15;;
54502;SDS011;40411;50.090;21.954;2022-12-07T01:23:47;15.50;;;6.88;;
54502;SDS011;40411;50.090;21.954;2022-12-07T01:26:15;13.48;;;6.03;;
54502;SDS011;40411;50.090;21.954;2022-12-07T01:28:43;17.27;;;6.57;;
54502;SDS011;40411;50.090;21.954;2022-12-07T01:31:11;16.27;;;7.18;;
54502;SDS011;40411;50.090;21.954;2022-12-07T01:33:40;16.10;;;6.85;;
54502;SDS011;40411;50.090;21.954;2022-12-07T01:36:08;15.45;;;6.10;;
54502;SDS011;40411;50.090;21.954;2022-12-07T01:38:40;13.73;;;6.43;;
54502;SDS011;40411;50.090;21.954;2022-12-07T01:41:06;10.93;;;5.03;;
54502;SDS011;40411;50.090;21.954;2022-12-07T01:43:33;12.50;;;6.10;;
54502;SDS011;40411;50.090;21.954;2022-12-07T01:46:00;11.25;;;5.85;;
54502;SDS011;40411;50.090;21.954;2022-12-07T01:48:31;11.65;;;5.60;;
54502;SDS011;40411;50.090;21.954;2022-12-07T01:51:08;12.93;;;5.60;;
54502;SDS011;40411;50.090;21.954;2022-12-07T01:53:37;11.73;;;4.70;;
54502;SDS011;40411;50.090;21.954;2022-12-07T01:56:07;9.30;;;4.45;;
54502;SDS011;40411;50.090;21.954;2022-12-07T01:58:35;12.93;;;5.00;;
54502;SDS011;40411;50.090;21.954;2022-12-07T02:01:02;11.32;;;5.53;;
54502;SDS011;40411;50.090;21.954;2022-12-07T02:03:30;12.18;;;5.65;;
54502;SDS011;40411;50.090;21.954;2022-12-07T02:05:59;14.23;;;5.95;;
54502;SDS011;40411;50.090;21.954;2022-12-07T02:08:26;13.85;;;6.25;;
54502;SDS011;40411;50.090;21.954;2022-12-07T02:10:52;12.38;;;5.25;;
54502;SDS011;40411;50.090;21.954;2022-12-07T02:18:16;11.75;;;5.40;;
54502;SDS011;40411;50.090;21.954;2022-12-07T02:26:17;12.32;;;6.47;;
54502;SDS011;40411;50.090;21.954;2022-12-07T02:29:38;17.60;;;7.38;;
54502;SDS011;40411;50.090;21.954;2022-12-07T02:32:39;17.02;;;6.50;;
54502;SDS011;40411;50.090;21.954;2022-12-07T02:37:48;10.38;;;4.70;;
54502;SDS011;40411;50.090;21.954;2022-12-07T02:40:33;15.35;;;5.95;;
54502;SDS011;40411;50.090;21.954;2022-12-07T02:43:08;14.95;;;5.88;;
54502;SDS011;40411;50.090;21.954;2022-12-07T02:45:40;15.13;;;6.47;;
54502;SDS011;40411;50.090;21.954;2022-12-07T02:48:07;15.23;;;6.20;;
54502;SDS011;40411;50.090;21.954;2022-12-07T02:50:35;17.33;;;7.25;;
54502;SDS011;40411;50.090;21.954;2022-12-07T02:53:01;16.38;;;6.40;;
54502;SDS011;40411;50.090;21.954;2022-12-07T02:55:28;19.33;;;7.20;;
54502;SDS011;40411;50.090;21.954;2022-12-07T03:01:08;14.90;;;5.97;;
54502;SDS011;40411;50.090;21.954;2022-12-07T03:03:32;13.13;;;5.72;;
54502;SDS011;40411;50.090;21.954;2022-12-07T03:06:08;20.00;;;6.90;;
54502;SDS011;40411;50.090;21.954;2022-12-07T03:08:51;14.13;;;7.13;;
54502;SDS011;40411;50.090;21.954;2022-12-07T03:12:00;17.02;;;7.53;;
54502;SDS011;40411;50.090;21.954;2022-12-07T03:14:26;12.85;;;6.13;;
54502;SDS011;40411;50.090;21.954;2022-12-07T03:17:00;14.25;;;6.45;;
54502;SDS011;40411;50.090;21.954;2022-12-07T03:19:32;17.73;;;6.60;;
54502;SDS011;40411;50.090;21.954;2022-12-07T03:22:01;17.30;;;6.45;;
54502;SDS011;40411;50.090;21.954;2022-12-07T03:24:32;14.60;;;6.05;;
54502;SDS011;40411;50.090;21.954;2022-12-07T03:27:04;16.45;;;6.90;;
54502;SDS011;40411;50.090;21.954;2022-12-07T03:29:37;13.02;;;5.93;;
54502;SDS011;40411;50.090;21.954;2022-12-07T03:32:15;11.40;;;4.88;;
54502;SDS011;40411;50.090;21.954;2022-12-07T03:40:03;10.57;;;4.85;;
54502;SDS011;40411;50.090;21.954;2022-12-07T03:42:38;12.27;;;5.30;;
54502;SDS011;40411;50.090;21.954;2022-12-07T03:45:04;10.40;;;4.63;;
54502;SDS011;40411;50.090;21.954;2022-12-07T03:50:31;13.18;;;5.57;;
54502;SDS011;40411;50.090;21.954;2022-12-07T03:53:16;14.73;;;5.95;;
54502;SDS011;40411;50.090;21.954;2022-12-07T03:55:47;14.23;;;5.20;;
54502;SDS011;40411;50.090;21.954;2022-12-07T03:58:18;14.45;;;5.60;;
54502;SDS011;40411;50.090;21.954;2022-12-07T04:00:47;11.88;;;5.05;;
54502;SDS011;40411;50.090;21.954;2022-12-07T04:03:15;13.63;;;6.60;;
54502;SDS011;40411;50.090;21.954;2022-12-07T04:05:41;14.85;;;5.68;;
54502;SDS011;40411;50.090;21.954;2022-12-07T04:08:08;10.15;;;4.72;;
54502;SDS011;40411;50.090;21.954;2022-12-07T04:10:33;10.50;;;4.80;;
54502;SDS011;40411;50.090;21.954;2022-12-07T04:12:59;11.80;;;5.57;;
54502;SDS011;40411;50.090;21.954;2022-12-07T04:15:25;12.98;;;5.68;;
54502;SDS011;40411;50.090;21.954;2022-12-07T04:17:51;10.50;;;5.03;;
54502;SDS011;40411;50.090;21.954;2022-12-07T04:20:18;13.38;;;5.38;;
54502;SDS011;40411;50.090;21.954;2022-12-07T04:22:44;17.98;;;5.93;;
54502;SDS011;40411;50.090;21.954;2022-12-07T04:25:09;14.20;;;6.15;;
54502;SDS011;40411;50.090;21.954;2022-12-07T04:27:35;18.98;;;6.57;;
54502;SDS011;40411;50.090;21.954;2022-12-07T04:30:01;14.88;;;6.10;;
54502;SDS011;40411;50.090;21.954;2022-12-07T04:32:27;12.70;;;5.63;;
54502;SDS011;40411;50.090;21.954;2022-12-07T04:34:53;12.07;;;5.22;;
54502;SDS011;40411;50.090;21.954;2022-12-07T04:37:19;10.85;;;4.88;;
54502;SDS011;40411;50.090;21.954;2022-12-07T04:39:45;15.05;;;6.22;;
54502;SDS011;40411;50.090;21.954;2022-12-07T04:42:11;11.75;;;4.80;;
54502;SDS011;40411;50.090;21.954;2022-12-07T04:44:38;11.07;;;5.07;;
54502;SDS011;40411;50.090;21.954;2022-12-07T04:47:04;8.40;;;4.35;;
54502;SDS011;40411;50.090;21.954;2022-12-07T04:49:30;10.43;;;4.97;;
54502;SDS011;40411;50.090;21.954;2022-12-07T04:51:56;10.95;;;4.95;;
54502;SDS011;40411;50.090;21.954;2022-12-07T04:54:22;10.38;;;5.18;;
54502;SDS011;40411;50.090;21.954;2022-12-07T04:56:48;13.55;;;6.35;;
54502;SDS011;40411;50.090;21.954;2022-12-07T04:59:14;14.23;;;5.90;;
54502;SDS011;40411;50.090;21.954;2022-12-07T05:01:41;16.95;;;6.18;;
54502;SDS011;40411;50.090;21.954;2022-12-07T05:04:07;18.55;;;7.90;;
54502;SDS011;40411;50.090;21.954;2022-12-07T05:06:33;17.67;;;8.23;;
54502;SDS011;40411;50.090;21.954;2022-12-07T05:09:00;14.57;;;6.32;;
54502;SDS011;40411;50.090;21.954;2022-12-07T05:11:26;13.43;;;5.45;;
54502;SDS011;40411;50.090;21.954;2022-12-07T05:14:04;10.88;;;4.85;;
54502;SDS011;40411;50.090;21.954;2022-12-07T05:16:33;10.88;;;4.82;;
54502;SDS011;40411;50.090;21.954;2022-12-07T05:18:59;12.05;;;4.93;;
54502;SDS011;40411;50.090;21.954;2022-12-07T05:21:24;10.35;;;5.53;;
54502;SDS011;40411;50.090;21.954;2022-12-07T05:23:50;12.15;;;4.85;;
54502;SDS011;40411;50.090;21.954;2022-12-07T05:26:17;11.13;;;5.45;;
54502;SDS011;40411;50.090;21.954;2022-12-07T05:28:43;15.07;;;6.32;;
54502;SDS011;40411;50.090;21.954;2022-12-07T05:31:09;18.88;;;6.95;;
54502;SDS011;40411;50.090;21.954;2022-12-07T05:33:35;18.40;;;6.95;;
54502;SDS011;40411;50.090;21.954;2022-12-07T05:36:01;22.80;;;8.27;;
54502;SDS011;40411;50.090;21.954;2022-12-07T05:38:31;18.52;;;7.80;;
54502;SDS011;40411;50.090;21.954;2022-12-07T05:41:04;19.27;;;7.10;;
54502;SDS011;40411;50.090;21.954;2022-12-07T05:43:31;20.75;;;7.72;;
54502;SDS011;40411;50.090;21.954;2022-12-07T05:45:58;24.48;;;8.20;;
54502;SDS011;40411;50.090;21.954;2022-12-07T05:48:24;17.10;;;7.63;;
54502;SDS011;40411;50.090;21.954;2022-12-07T05:50:51;20.15;;;8.05;;
54502;SDS011;40411;50.090;21.954;2022-12-07T05:53:18;18.83;;;7.65;;
54502;SDS011;40411;50.090;21.954;2022-12-07T05:55:44;17.38;;;7.20;;
54502;SDS011;40411;50.090;21.954;2022-12-07T05:58:10;13.60;;;6.18;;
54502;SDS011;40411;50.090;21.954;2022-12-07T06:00:55;18.80;;;5.97;;
54502;SDS011;40411;50.090;21.954;2022-12-07T06:03:20;15.50;;;5.95;;
54502;SDS011;40411;50.090;21.954;2022-12-07T06:05:47;11.10;;;5.07;;
54502;SDS011;40411;50.090;21.954;2022-12-07T06:08:13;13.68;;;5.70;;
54502;SDS011;40411;50.090;21.954;2022-12-07T06:10:40;14.88;;;6.38;;
54502;SDS011;40411;50.090;21.954;2022-12-07T06:13:07;21.00;;;6.07;;
54502;SDS011;40411;50.090;21.954;2022-12-07T06:15:37;28.88;;;10.93;;
54502;SDS011;40411;50.090;21.954;2022-12-07T06:18:03;16.75;;;7.53;;
54502;SDS011;40411;50.090;21.954;2022-12-07T06:20:29;13.05;;;6.10;;
54502;SDS011;40411;50.090;21.954;2022-12-07T06:22:55;12.73;;;6.32;;
54502;SDS011;40411;50.090;21.954;2022-12-07T06:25:21;10.75;;;4.85;;
54502;SDS011;40411;50.090;21.954;2022-12-07T06:27:46;11.23;;;4.97;;
54502;SDS011;40411;50.090;21.954;2022-12-07T06:30:12;14.15;;;4.82;;
54502;SDS011;40411;50.090;21.954;2022-12-07T06:32:38;10.35;;;4.38;;
54502;SDS011;40411;50.090;21.954;2022-12-07T06:35:04;11.32;;;5.15;;
54502;SDS011;40411;50.090;21.954;2022-12-07T06:37:30;9.02;;;3.95;;
54502;SDS011;40411;50.090;21.954;2022-12-07T06:39:56;12.18;;;4.20;;
54502;SDS011;40411;50.090;21.954;2022-12-07T06:42:21;9.68;;;3.83;;
54502;SDS011;40411;50.090;21.954;2022-12-07T06:44:48;9.75;;;4.20;;
54502;SDS011;40411;50.090;21.954;2022-12-07T06:47:14;8.10;;;3.63;;
54502;SDS011;40411;50.090;21.954;2022-12-07T06:49:40;8.52;;;3.72;;
54502;SDS011;40411;50.090;21.954;2022-12-07T06:52:05;13.95;;;4.43;;
54502;SDS011;40411;50.090;21.954;2022-12-07T06:54:31;8.88;;;3.50;;
54502;SDS011;40411;50.090;21.954;2022-12-07T06:56:57;7.03;;;3.03;;
54502;SDS011;40411;50.090;21.954;2022-12-07T06:59:23;9.50;;;4.68;;
54502;SDS011;40411;50.090;21.954;2022-12-07T07:01:49;8.32;;;3.80;;
54502;SDS011;40411;50.090;21.954;2022-12-07T07:04:16;9.73;;;4.70;;
54502;SDS011;40411;50.090;21.954;2022-12-07T07:06:41;9.95;;;4.38;;
54502;SDS011;40411;50.090;21.954;2022-12-07T07:09:07;9.43;;;4.63;;
54502;SDS011;40411;50.090;21.954;2022-12-07T07:11:34;10.43;;;4.82;;
54502;SDS011;40411;50.090;21.954;2022-12-07T07:14:00;9.27;;;4.20;;
54502;SDS011;40411;50.090;21.954;2022-12-07T07:16:28;10.35;;;4.72;;
54502;SDS011;40411;50.090;21.954;2022-12-07T07:18:56;10.60;;;5.18;;
54502;SDS011;40411;50.090;21.954;2022-12-07T07:21:22;11.40;;;4.93;;
54502;SDS011;40411;50.090;21.954;2022-12-07T07:23:49;10.25;;;4.90;;
54502;SDS011;40411;50.090;21.954;2022-12-07T07:26:14;11.05;;;4.85;;
54502;SDS011;40411;50.090;21.954;2022-12-07T07:28:40;12.32;;;5.55;;
54502;SDS011;40411;50.090;21.954;2022-12-07T07:31:06;10.15;;;4.63;;
54502;SDS011;40411;50.090;21.954;2022-12-07T07:33:32;10.43;;;5.65;;
54502;SDS011;40411;50.090;21.954;2022-12-07T07:35:58;11.45;;;4.63;;
54502;SDS011;40411;50.090;21.954;2022-12-07T07:38:23;13.65;;;5.75;;
54502;SDS011;40411;50.090;21.954;2022-12-07T07:40:49;14.52;;;7.68;;
54502;SDS011;40411;50.090;21.954;2022-12-07T07:43:15;12.35;;;5.68;;
54502;SDS011;40411;50.090;21.954;2022-12-07T07:45:41;10.98;;;4.80;;
54502;SDS011;40411;50.090;21.954;2022-12-07T07:48:07;10.88;;;5.85;;
54502;SDS011;40411;50.090;21.954;2022-12-07T07:50:33;9.10;;;4.75;;
54502;SDS011;40411;50.090;21.954;2022-12-07T07:52:59;10.75;;;5.65;;
54502;SDS011;40411;50.090;21.954;2022-12-07T07:55:24;13.07;;;5.70;;
54502;SDS011;40411;50.090;21.954;2022-12-07T07:57:50;7.65;;;4.07;;
54502;SDS011;40411;50.090;21.954;2022-12-07T08:00:17;12.13;;;5.90;;
54502;SDS011;40411;50.090;21.954;2022-12-07T08:02:43;11.18;;;5.80;;
54502;SDS011;40411;50.090;21.954;2022-12-07T08:05:12;10.52;;;5.68;;
54502;SDS011;40411;50.090;21.954;2022-12-07T08:07:40;12.55;;;5.40;;
54502;SDS011;40411;50.090;21.954;2022-12-07T08:10:09;11.10;;;5.85;;
54502;SDS011;40411;50.090;21.954;2022-12-07T08:12:38;10.90;;;4.97;;
54502;SDS011;40411;50.090;21.954;2022-12-07T08:15:25;9.95;;;5.38;;
54502;SDS011;40411;50.090;21.954;2022-12-07T08:17:53;11.90;;;5.15;;
54502;SDS011;40411;50.090;21.954;2022-12-07T08:20:19;10.35;;;5.95;;
54502;SDS011;40411;50.090;21.954;2022-12-07T08:22:45;13.43;;;5.88;;
54502;SDS011;40411;50.090;21.954;2022-12-07T08:25:11;10.60;;;6.07;;
54502;SDS011;40411;50.090;21.954;2022-12-07T08:27:37;12.18;;;5.68;;
54502;SDS011;40411;50.090;21.954;2022-12-07T08:30:03;13.18;;;5.90;;
54502;SDS011;40411;50.090;21.954;2022-12-07T08:32:29;11.07;;;5.35;;
54502;SDS011;40411;50.090;21.954;2022-12-07T08:34:55;13.27;;;5.80;;
54502;SDS011;40411;50.090;21.954;2022-12-07T08:37:21;12.10;;;6.28;;
54502;SDS011;40411;50.090;21.954;2022-12-07T08:39:47;10.13;;;5.63;;
54502;SDS011;40411;50.090;21.954;2022-12-07T08:42:13;9.98;;;5.00;;
54502;SDS011;40411;50.090;21.954;2022-12-07T08:44:39;13.38;;;6.20;;
54502;SDS011;40411;50.090;21.954;2022-12-07T08:47:06;10.32;;;5.63;;
54502;SDS011;40411;50.090;21.954;2022-12-07T08:49:41;14.05;;;5.75;;
54502;SDS011;40411;50.090;21.954;2022-12-07T08:52:11;14.57;;;6.38;;
54502;SDS011;40411;50.090;21.954;2022-12-07T08:54:37;13.60;;;6.55;;
54502;SDS011;40411;50.090;21.954;2022-12-07T08:57:05;13.27;;;6.35;;
54502;SDS011;40411;50.090;21.954;2022-12-07T08:59:33;13.13;;;6.15;;
54502;SDS011;40411;50.090;21.954;2022-12-07T09:02:02;12.82;;;6.97;;
54502;SDS011;40411;50.090;21.954;2022-12-07T09:04:29;21.30;;;10.55;;
54502;SDS011;40411;50.090;21.954;2022-12-07T09:06:55;12.73;;;6.43;;
54502;SDS011;40411;50.090;21.954;2022-12-07T09:09:22;12.75;;;6.47;;
54502;SDS011;40411;50.090;21.954;2022-12-07T09:11:48;11.52;;;5.90;;
54502;SDS011;40411;50.090;21.954;2022-12-07T09:14:14;11.88;;;5.80;;
54502;SDS011;40411;50.090;21.954;2022-12-07T09:16:40;12.45;;;6.20;;
54502;SDS011;40411;50.090;21.954;2022-12-07T09:19:07;12.02;;;5.75;;
54502;SDS011;40411;50.090;21.954;2022-12-07T09:21:34;12.88;;;5.20;;
54502;SDS011;40411;50.090;21.954;2022-12-07T09:24:00;13.00;;;5.20;;
54502;SDS011;40411;50.090;21.954;2022-12-07T09:26:26;10.88;;;6.13;;
54502;SDS011;40411;50.090;21.954;2022-12-07T09:28:52;13.82;;;5.22;;
54502;SDS011;40411;50.090;21.954;2022-12-07T09:31:18;11.20;;;4.82;;
54502;SDS011;40411;50.090;21.954;2022-12-07T09:33:52;9.15;;;4.68;;
54502;SDS011;40411;50.090;21.954;2022-12-07T09:36:19;11.90;;;5.18;;
54502;SDS011;40411;50.090;21.954;2022-12-07T09:38:45;11.02;;;5.15;;
54502;SDS011;40411;50.090;21.954;2022-12-07T09:41:11;11.85;;;5.45;;
54502;SDS011;40411;50.090;21.954;2022-12-07T09:43:37;12.18;;;6.05;;
54502;SDS011;40411;50.090;21.954;2022-12-07T09:46:05;11.25;;;5.22;;
54502;SDS011;40411;50.090;21.954;2022-12-07T09:48:36;9.75;;;5.30;;
54502;SDS011;40411;50.090;21.954;2022-12-07T09:51:20;14.95;;;5.25;;
54502;SDS011;40411;50.090;21.954;2022-12-07T09:53:49;11.43;;;4.88;;
54502;SDS011;40411;50.090;21.954;2022-12-07T09:56:16;13.25;;;5.88;;
54502;SDS011;40411;50.090;21.954;2022-12-07T09:58:45;13.52;;;6.60;;
54502;SDS011;40411;50.090;21.954;2022-12-07T10:01:13;12.32;;;6.20;;
54502;SDS011;40411;50.090;21.954;2022-12-07T10:03:45;13.93;;;5.90;;
54502;SDS011;40411;50.090;21.954;2022-12-07T10:06:16;17.23;;;7.60;;
54502;SDS011;40411;50.090;21.954;2022-12-07T10:08:42;16.13;;;5.63;;
54502;SDS011;40411;50.090;21.954;2022-12-07T10:11:09;10.68;;;5.43;;
54502;SDS011;40411;50.090;21.954;2022-12-07T10:13:49;12.52;;;6.00;;
54502;SDS011;40411;50.090;21.954;2022-12-07T10:19:22;27.50;;;10.07;;
54502;SDS011;40411;50.090;21.954;2022-12-07T10:22:10;18.58;;;7.40;;
54502;SDS011;40411;50.090;21.954;2022-12-07T10:24:42;19.33;;;7.15;;
54502;SDS011;40411;50.090;21.954;2022-12-07T10:27:19;21.40;;;9.20;;
54502;SDS011;40411;50.090;21.954;2022-12-07T10:29:47;19.90;;;8.80;;
54502;SDS011;40411;50.090;21.954;2022-12-07T10:34:42;15.13;;;6.65;;
54502;SDS011;40411;50.090;21.954;2022-12-07T10:42:30;25.17;;;8.70;;
54502;SDS011;40411;50.090;21.954;2022-12-07T10:53:10;13.48;;;6.32;;
54502;SDS011;40411;50.090;21.954;2022-12-07T10:55:47;8.80;;;4.53;;
54502;SDS011;40411;50.090;21.954;2022-12-07T11:01:25;19.67;;;8.68;;
54502;SDS011;40411;50.090;21.954;2022-12-07T11:04:13;13.48;;;5.90;;
54502;SDS011;40411;50.090;21.954;2022-12-07T11:07:13;9.65;;;3.80;;
54502;SDS011;40411;50.090;21.954;2022-12-07T11:12:47;18.35;;;6.80;;
54502;SDS011;40411;50.090;21.954;2022-12-07T11:15:52;26.95;;;4.78;;
54502;SDS011;40411;50.090;21.954;2022-12-07T11:18:27;11.52;;;4.63;;
54502;SDS011;40411;50.090;21.954;2022-12-07T11:31:47;15.73;;;7.03;;
54502;SDS011;40411;50.090;21.954;2022-12-07T11:37:01;15.52;;;7.68;;
54502;SDS011;40411;50.090;21.954;2022-12-07T11:39:33;10.30;;;5.55;;
54502;SDS011;40411;50.090;21.954;2022-12-07T11:42:16;9.27;;;4.55;;
54502;SDS011;40411;50.090;21.954;2022-12-07T11:45:03;13.30;;;5.72;;
54502;SDS011;40411;50.090;21.954;2022-12-07T11:47:43;17.70;;;6.65;;
54502;SDS011;40411;50.090;21.954;2022-12-07T11:55:43;9.73;;;3.63;;
54502;SDS011;40411;50.090;21.954;2022-12-07T12:01:13;13.35;;;5.65;;
54502;SDS011;40411;50.090;21.954;2022-12-07T12:03:47;11.15;;;5.70;;
54502;SDS011;40411;50.090;21.954;2022-12-07T12:06:22;15.95;;;7.10;;
54502;SDS011;40411;50.090;21.954;2022-12-07T12:11:26;9.63;;;4.80;;
54502;SDS011;40411;50.090;21.954;2022-12-07T12:22:37;11.65;;;5.97;;
54502;SDS011;40411;50.090;21.954;2022-12-07T12:25:07;13.70;;;5.93;;
54502;SDS011;40411;50.090;21.954;2022-12-07T12:27:47;19.20;;;7.15;;
54502;SDS011;40411;50.090;21.954;2022-12-07T12:30:29;16.02;;;8.07;;
54502;SDS011;40411;50.090;21.954;2022-12-07T12:33:19;16.73;;;6.88;;
54502;SDS011;40411;50.090;21.954;2022-12-07T12:46:55;21.00;;;10.38;;
54502;SDS011;40411;50.090;21.954;2022-12-07T12:54:59;24.23;;;9.98;;
54502;SDS011;40411;50.090;21.954;2022-12-07T12:57:37;15.25;;;7.78;;
54502;SDS011;40411;50.090;21.954;2022-12-07T13:00:24;19.50;;;8.57;;
54502;SDS011;40411;50.090;21.954;2022-12-07T13:02:54;28.88;;;11.02;;
54502;SDS011;40411;50.090;21.954;2022-12-07T13:05:25;16.88;;;8.35;;
54502;SDS011;40411;50.090;21.954;2022-12-07T13:07:57;22.15;;;9.52;;
54502;SDS011;40411;50.090;21.954;2022-12-07T13:10:45;24.42;;;10.13;;
54502;SDS011;40411;50.090;21.954;2022-12-07T13:20:57;39.58;;;16.25;;
54502;SDS011;40411;50.090;21.954;2022-12-07T13:28:36;25.55;;;11.52;;
54502;SDS011;40411;50.090;21.954;2022-12-07T13:33:56;31.65;;;12.70;;
54502;SDS011;40411;50.090;21.954;2022-12-07T13:36:23;26.27;;;11.18;;
54502;SDS011;40411;50.090;21.954;2022-12-07T13:40:16;24.17;;;11.80;;
54502;SDS011;40411;50.090;21.954;2022-12-07T13:42:06;85.30;;;37.08;;
54502;SDS011;40411;50.090;21.954;2022-12-07T13:44:41;47.05;;;22.42;;
54502;SDS011;40411;50.090;21.954;2022-12-07T13:50:29;58.67;;;27.70;;
54502;SDS011;40411;50.090;21.954;2022-12-07T13:52:57;61.20;;;28.48;;
54502;SDS011;40411;50.090;21.954;2022-12-07T13:55:24;72.13;;;32.88;;
54502;SDS011;40411;50.090;21.954;2022-12-07T13:57:51;57.90;;;27.30;;
54502;SDS011;40411;50.090;21.954;2022-12-07T14:00:20;76.88;;;33.47;;
54502;SDS011;40411;50.090;21.954;2022-12-07T14:06:03;59.33;;;25.80;;
54502;SDS011;40411;50.090;21.954;2022-12-07T14:08:40;67.72;;;28.92;;
54502;SDS011;40411;50.090;21.954;2022-12-07T14:11:06;57.40;;;27.17;;
54502;SDS011;40411;50.090;21.954;2022-12-07T14:13:51;46.08;;;22.33;;
54502;SDS011;40411;50.090;21.954;2022-12-07T14:16:25;51.17;;;26.13;;
54502;SDS011;40411;50.090;21.954;2022-12-07T14:18:56;35.83;;;17.42;;
54502;SDS011;40411;50.090;21.954;2022-12-07T14:21:25;50.15;;;19.27;;
54502;SDS011;40411;50.090;21.954;2022-12-07T14:24:15;39.80;;;15.30;;
54502;SDS011;40411;50.090;21.954;2022-12-07T14:26:44;25.58;;;10.45;;
54502;SDS011;40411;50.090;21.954;2022-12-07T14:32:09;15.05;;;7.38;;
54502;SDS011;40411;50.090;21.954;2022-12-07T14:37:33;16.30;;;9.05;;
54502;SDS011;40411;50.090;21.954;2022-12-07T14:39:59;23.63;;;11.15;;
54502;SDS011;40411;50.090;21.954;2022-12-07T14:42:27;23.27;;;10.00;;
54502;SDS011;40411;50.090;21.954;2022-12-07T14:44:56;21.50;;;10.00;;
54502;SDS011;40411;50.090;21.954;2022-12-07T14:47:23;24.23;;;11.43;;
54502;SDS011;40411;50.090;21.954;2022-12-07T14:49:50;45.97;;;20.33;;
54502;SDS011;40411;50.090;21.954;2022-12-07T14:52:17;39.00;;;16.52;;
54502;SDS011;40411;50.090;21.954;2022-12-07T14:54:46;27.08;;;11.30;;
54502;SDS011;40411;50.090;21.954;2022-12-07T14:57:12;19.13;;;10.48;;
54502;SDS011;40411;50.090;21.954;2022-12-07T14:59:38;18.70;;;8.00;;
54502;SDS011;40411;50.090;21.954;2022-12-07T15:02:05;15.90;;;7.60;;
54502;SDS011;40411;50.090;21.954;2022-12-07T15:04:31;18.48;;;8.23;;
54502;SDS011;40411;50.090;21.954;2022-12-07T15:06:59;21.58;;;9.20;;
54502;SDS011;40411;50.090;21.954;2022-12-07T15:09:27;28.35;;;14.25;;
54502;SDS011;40411;50.090;21.954;2022-12-07T15:11:53;28.17;;;12.23;;
54502;SDS011;40411;50.090;21.954;2022-12-07T15:14:19;37.70;;;15.73;;
54502;SDS011;40411;50.090;21.954;2022-12-07T15:16:47;30.42;;;14.07;;
54502;SDS011;40411;50.090;21.954;2022-12-07T15:19:14;34.50;;;13.00;;
54502;SDS011;40411;50.090;21.954;2022-12-07T15:21:42;27.80;;;12.48;;
54502;SDS011;40411;50.090;21.954;2022-12-07T15:24:10;42.80;;;19.50;;
54502;SDS011;40411;50.090;21.954;2022-12-07T15:26:38;50.92;;;20.52;;
54502;SDS011;40411;50.090;21.954;2022-12-07T15:29:05;60.22;;;27.05;;
54502;SDS011;40411;50.090;21.954;2022-12-07T15:31:32;55.75;;;24.73;;
54502;SDS011;40411;50.090;21.954;2022-12-07T15:33:58;38.47;;;16.60;;
54502;SDS011;40411;50.090;21.954;2022-12-07T15:36:29;58.40;;;22.75;;
54502;SDS011;40411;50.090;21.954;2022-12-07T15:38:57;79.47;;;32.47;;
54502;SDS011;40411;50.090;21.954;2022-12-07T15:41:23;47.90;;;23.40;;
54502;SDS011;40411;50.090;21.954;2022-12-07T15:43:49;38.53;;;16.05;;
54502;SDS011;40411;50.090;21.954;2022-12-07T15:46:36;31.73;;;14.65;;
54502;SDS011;40411;50.090;21.954;2022-12-07T15:49:05;32.03;;;14.98;;
54502;SDS011;40411;50.090;21.954;2022-12-07T15:51:35;36.78;;;16.83;;
54502;SDS011;40411;50.090;21.954;2022-12-07T15:54:00;39.55;;;18.50;;
54502;SDS011;40411;50.090;21.954;2022-12-07T15:56:26;29.00;;;13.65;;
54502;SDS011;40411;50.090;21.954;2022-12-07T15:58:52;24.17;;;11.73;;
54502;SDS011;40411;50.090;21.954;2022-12-07T16:01:19;29.42;;;13.98;;
54502;SDS011;40411;50.090;21.954;2022-12-07T16:03:45;37.33;;;16.95;;
54502;SDS011;40411;50.090;21.954;2022-12-07T16:06:15;29.80;;;13.38;;
54502;SDS011;40411;50.090;21.954;2022-12-07T16:08:44;30.92;;;15.15;;
54502;SDS011;40411;50.090;21.954;2022-12-07T16:11:11;25.35;;;11.23;;
54502;SDS011;40411;50.090;21.954;2022-12-07T16:13:38;27.92;;;12.27;;
54502;SDS011;40411;50.090;21.954;2022-12-07T16:16:06;33.00;;;13.30;;
54502;SDS011;40411;50.090;21.954;2022-12-07T16:18:35;31.15;;;13.80;;
54502;SDS011;40411;50.090;21.954;2022-12-07T16:21:01;27.75;;;12.65;;
54502;SDS011;40411;50.090;21.954;2022-12-07T16:23:28;29.38;;;12.85;;
54502;SDS011;40411;50.090;21.954;2022-12-07T16:25:54;29.80;;;12.77;;
54502;SDS011;40411;50.090;21.954;2022-12-07T16:28:20;29.27;;;13.02;;
54502;SDS011;40411;50.090;21.954;2022-12-07T16:30:46;24.38;;;11.82;;
54502;SDS011;40411;50.090;21.954;2022-12-07T16:33:12;23.15;;;13.02;;
54502;SDS011;40411;50.090;21.954;2022-12-07T16:35:38;25.88;;;11.77;;
54502;SDS011;40411;50.090;21.954;2022-12-07T16:38:09;29.90;;;12.88;;
54502;SDS011;40411;50.090;21.954;2022-12-07T16:40:35;32.95;;;13.02;;